createdAt,value
2019-02-06T00:00:27.213Z,-1.35
2019-02-06T00:01:26.668Z,-1.36
2019-02-06T00:02:26.104Z,-1.33
2019-02-06T00:03:26.257Z,-1.39
2019-02-06T00:04:25.943Z,-1.38
2019-02-06T00:05:25.839Z,-1.39
2019-02-06T00:06:26.937Z,-1.35
2019-02-06T00:07:25.939Z,-1.32
2019-02-06T00:08:26.537Z,-1.34
2019-02-06T00:09:26.217Z,-1.41
2019-02-06T00:10:26.358Z,-1.38
2019-02-06T00:11:25.746Z,-1.42
2019-02-06T00:12:26.078Z,-1.43
2019-02-06T00:13:26.391Z,-1.41
2019-02-06T00:14:26.204Z,-1.37
2019-02-06T00:15:26.543Z,-1.4
2019-02-06T00:16:25.999Z,-1.43
2019-02-06T00:17:26.466Z,-1.4
2019-02-06T00:18:26.312Z,-1.45
2019-02-06T00:19:25.867Z,-1.5
2019-02-06T00:20:26.168Z,-1.46
2019-02-06T00:21:27.554Z,-1.45
2019-02-06T00:22:26.086Z,-1.49
2019-02-06T00:23:26.387Z,-1.48
2019-02-06T00:24:27.105Z,-1.48
2019-02-06T00:25:27.654Z,-1.49
2019-02-06T00:26:26.183Z,-1.5
2019-02-06T00:27:26.109Z,-1.44
2019-02-06T00:28:25.865Z,-1.5
2019-02-06T00:29:25.991Z,-1.49
2019-02-06T00:30:25.834Z,-1.49
2019-02-06T00:31:25.827Z,-1.5
2019-02-06T00:32:26.127Z,-1.52
2019-02-06T00:33:26.128Z,-1.52
2019-02-06T00:34:25.907Z,-1.51
2019-02-06T00:35:26.504Z,-1.52
2019-02-06T00:36:26.139Z,-1.53
2019-02-06T00:37:25.788Z,-1.57
2019-02-06T00:38:26.078Z,-1.54
2019-02-06T00:39:26.835Z,-1.52
2019-02-06T00:40:26.082Z,-1.53
2019-02-06T00:41:26.091Z,-1.53
2019-02-06T00:42:26.895Z,-1.55
2019-02-06T00:43:25.907Z,-1.52
2019-02-06T00:44:26.989Z,-1.53
2019-02-06T00:45:25.757Z,-1.55
2019-02-06T00:46:26.170Z,-1.53
2019-02-06T00:47:25.801Z,-1.59
2019-02-06T00:48:25.777Z,-1.57
2019-02-06T00:49:25.792Z,-1.52
2019-02-06T00:50:25.799Z,-1.62
2019-02-06T00:51:26.033Z,-1.57
2019-02-06T00:52:27.560Z,-1.56
2019-02-06T00:53:25.977Z,-1.61
2019-02-06T00:54:26.060Z,-1.63
2019-02-06T00:55:25.727Z,-1.61
2019-02-06T00:56:25.740Z,-1.67
2019-02-06T00:57:25.934Z,-1.62
2019-02-06T00:58:26.091Z,-1.66
2019-02-06T00:59:26.086Z,-1.65
2019-02-06T01:00:25.761Z,-1.67
2019-02-06T01:01:25.733Z,-1.62
2019-02-06T01:02:26.325Z,-1.63
2019-02-06T01:03:25.821Z,-1.68
2019-02-06T01:04:25.883Z,-1.63
2019-02-06T01:05:39.056Z,-1.67
2019-02-06T01:06:25.708Z,-1.68
2019-02-06T01:07:27.200Z,-1.7
2019-02-06T01:08:26.046Z,-1.73
2019-02-06T01:09:25.712Z,-1.74
2019-02-06T01:10:25.713Z,-1.71
2019-02-06T01:11:25.819Z,-1.72
2019-02-06T01:12:26.390Z,-1.77
2019-02-06T01:13:25.718Z,-1.74
2019-02-06T01:14:25.832Z,-1.75
2019-02-06T01:15:27.402Z,-1.76
2019-02-06T01:16:25.793Z,-1.76
2019-02-06T01:17:26.232Z,-1.76
2019-02-06T01:18:26.852Z,-1.81
2019-02-06T01:19:26.438Z,-1.81
2019-02-06T01:20:25.764Z,-1.8
2019-02-06T01:21:25.831Z,-1.77
2019-02-06T01:22:27.242Z,-1.82
2019-02-06T01:23:26.460Z,-1.82
2019-02-06T01:24:25.695Z,-1.81
2019-02-06T01:25:26.166Z,-1.86
2019-02-06T01:26:25.807Z,-1.86
2019-02-06T01:27:25.711Z,-1.86
2019-02-06T01:28:26.184Z,-1.88
2019-02-06T01:29:26.194Z,-1.88
2019-02-06T01:30:27.908Z,-1.93
2019-02-06T01:31:25.840Z,-1.93
2019-02-06T01:32:25.678Z,-1.97
2019-02-06T01:33:25.686Z,-1.9
2019-02-06T01:34:26.083Z,-1.94
2019-02-06T01:35:25.838Z,-1.97
2019-02-06T01:36:26.152Z,-1.99
2019-02-06T01:37:26.927Z,-1.97
2019-02-06T01:38:25.701Z,-2.04
2019-02-06T01:39:26.050Z,-2.05
2019-02-06T01:40:25.704Z,-1.99
2019-02-06T01:41:25.788Z,-2.04
2019-02-06T01:42:25.661Z,-2.06
2019-02-06T01:43:26.080Z,-2.05
2019-02-06T01:44:26.088Z,-2.06
2019-02-06T01:45:27.493Z,-2.08
2019-02-06T01:46:25.817Z,-2.02
2019-02-06T01:47:25.865Z,-2.06
2019-02-06T01:48:26.014Z,-2.03
2019-02-06T01:49:25.862Z,-2.02
2019-02-06T01:50:26.199Z,-2.07
2019-02-06T01:51:25.952Z,-2.09
2019-02-06T01:52:26.514Z,-2.08
2019-02-06T01:53:25.918Z,-2.09
2019-02-06T01:54:25.836Z,-2.08
2019-02-06T01:55:26.075Z,-2.12
2019-02-06T01:56:25.650Z,-2.16
2019-02-06T01:57:25.975Z,-2.16
2019-02-06T01:58:26.294Z,-2.16
2019-02-06T01:59:25.694Z,-2.15
2019-02-06T02:00:27.386Z,-2.14
2019-02-06T02:01:25.740Z,-2.19
2019-02-06T02:02:25.691Z,-2.21
2019-02-06T02:03:25.639Z,-2.21
2019-02-06T02:04:25.907Z,-2.25
2019-02-06T02:05:25.752Z,-2.25
2019-02-06T02:06:25.625Z,-2.32
2019-02-06T02:07:26.802Z,-2.27
2019-02-06T02:08:25.868Z,-2.31
2019-02-06T02:09:25.670Z,-2.27
2019-02-06T02:10:26.059Z,-2.29
2019-02-06T02:11:25.719Z,-2.31
2019-02-06T02:12:25.737Z,-2.31
2019-02-06T02:13:25.831Z,-2.32
2019-02-06T02:14:26.087Z,-2.28
2019-02-06T02:15:27.075Z,-2.32
2019-02-06T02:16:25.614Z,-2.35
2019-02-06T02:17:25.709Z,-2.25
2019-02-06T02:18:25.624Z,-2.29
2019-02-06T02:19:25.613Z,-2.26
2019-02-06T02:20:25.929Z,-2.29
2019-02-06T02:21:26.015Z,-2.24
2019-02-06T02:22:25.695Z,-2.27
2019-02-06T02:23:27.025Z,-2.31
2019-02-06T02:24:25.634Z,-2.23
2019-02-06T02:25:25.600Z,-2.31
2019-02-06T02:26:25.961Z,-2.31
2019-02-06T02:27:25.657Z,-2.33
2019-02-06T02:28:25.958Z,-2.26
2019-02-06T02:29:25.945Z,-2.33
2019-02-06T02:30:25.815Z,-2.3
2019-02-06T02:31:25.745Z,-2.26
2019-02-06T02:32:25.893Z,-2.27
2019-02-06T02:33:25.626Z,-2.23
2019-02-06T02:34:25.808Z,-2.27
2019-02-06T02:35:25.594Z,-2.22
2019-02-06T02:36:25.626Z,-2.27
2019-02-06T02:37:25.638Z,-2.24
2019-02-06T02:38:26.612Z,-2.23
2019-02-06T02:39:25.593Z,-2.17
2019-02-06T02:40:25.629Z,-2.18
2019-02-06T02:41:25.681Z,-2.18
2019-02-06T02:42:25.604Z,-2.2
2019-02-06T02:43:25.593Z,-2.17
2019-02-06T02:44:25.637Z,-2.22
2019-02-06T02:45:25.631Z,-2.22
2019-02-06T02:46:26.769Z,-2.22
2019-02-06T02:47:25.606Z,-2.25
2019-02-06T02:48:25.577Z,-2.22
2019-02-06T02:49:25.662Z,-2.23
2019-02-06T02:50:25.641Z,-2.25
2019-02-06T02:51:25.667Z,-2.24
2019-02-06T02:52:25.682Z,-2.25
2019-02-06T02:53:25.545Z,-2.23
2019-02-06T02:54:25.641Z,-2.21
2019-02-06T02:55:25.843Z,-2.27
2019-02-06T02:56:25.597Z,-2.25
2019-02-06T02:57:25.611Z,-2.23
2019-02-06T02:58:25.578Z,-2.22
2019-02-06T02:59:25.677Z,-2.23
2019-02-06T03:00:25.578Z,-2.2
2019-02-06T03:01:26.437Z,-2.24
2019-02-06T03:02:25.878Z,-2.21
2019-02-06T03:03:25.596Z,-2.23
2019-02-06T03:04:25.643Z,-2.23
2019-02-06T03:05:25.702Z,-2.28
2019-02-06T03:06:28.916Z,-2.22
2019-02-06T03:07:25.789Z,-2.21
2019-02-06T03:08:25.535Z,-2.22
2019-02-06T03:09:27.267Z,-2.19
2019-02-06T03:10:25.635Z,-2.23
2019-02-06T03:11:25.603Z,-2.2
2019-02-06T03:12:25.550Z,-2.23
2019-02-06T03:13:25.607Z,-2.24
2019-02-06T03:14:25.823Z,-2.27
2019-02-06T03:15:25.887Z,-2.24
2019-02-06T03:16:25.784Z,-2.25
2019-02-06T03:17:25.989Z,-2.3
2019-02-06T03:18:25.617Z,-2.29
2019-02-06T03:19:25.561Z,-2.3
2019-02-06T03:20:25.601Z,-2.27
2019-02-06T03:21:25.643Z,-2.28
2019-02-06T03:22:25.835Z,-2.3
2019-02-06T03:23:25.527Z,-2.26
2019-02-06T03:24:26.609Z,-2.28
2019-02-06T03:25:25.626Z,-2.32
2019-02-06T03:26:25.500Z,-2.28
2019-02-06T03:27:25.585Z,-2.35
2019-02-06T03:28:25.571Z,-2.32
2019-02-06T03:29:25.763Z,-2.31
2019-02-06T03:30:26.314Z,-2.33
2019-02-06T03:31:25.725Z,-2.35
2019-02-06T03:32:27.611Z,-2.33
2019-02-06T03:33:25.535Z,-2.36
2019-02-06T03:34:25.513Z,-2.29
2019-02-06T03:35:26.322Z,-2.35
2019-02-06T03:36:25.517Z,-2.38
2019-02-06T03:37:25.556Z,-2.38
2019-02-06T03:38:26.133Z,-2.36
2019-02-06T03:39:25.636Z,-2.39
2019-02-06T03:40:25.510Z,-2.41
2019-02-06T03:41:25.637Z,-2.39
2019-02-06T03:42:25.760Z,-2.43
2019-02-06T03:43:25.771Z,-2.41
2019-02-06T03:44:25.854Z,-2.44
2019-02-06T03:45:25.621Z,-2.45
2019-02-06T03:46:25.551Z,-2.51
2019-02-06T03:47:27.170Z,-2.47
2019-02-06T03:48:25.597Z,-2.48
2019-02-06T03:49:25.546Z,-2.5
2019-02-06T03:50:25.523Z,-2.56
2019-02-06T03:51:25.678Z,-2.55
2019-02-06T03:52:25.610Z,-2.59
2019-02-06T03:53:25.482Z,-2.57
2019-02-06T03:54:25.816Z,-2.6
2019-02-06T03:55:25.771Z,-2.58
2019-02-06T03:56:25.487Z,-2.55
2019-02-06T03:57:25.507Z,-2.58
2019-02-06T03:58:25.649Z,-2.56
2019-02-06T03:59:25.983Z,-2.53
2019-02-06T04:00:25.750Z,-2.57
2019-02-06T04:01:25.453Z,-2.53
2019-02-06T04:02:26.652Z,-2.6
2019-02-06T04:03:25.485Z,-2.62
2019-02-06T04:04:25.675Z,-2.63
2019-02-06T04:05:25.912Z,-2.65
2019-02-06T04:06:25.557Z,-2.65
2019-02-06T04:07:25.703Z,-2.63
2019-02-06T04:08:25.911Z,-2.6
2019-02-06T04:09:25.558Z,-2.54
2019-02-06T04:10:27.215Z,-2.56
2019-02-06T04:11:25.643Z,-2.59
2019-02-06T04:12:25.536Z,-2.56
2019-02-06T04:13:25.599Z,-2.57
2019-02-06T04:14:25.587Z,-2.6
2019-02-06T04:15:25.478Z,-2.6
2019-02-06T04:16:25.535Z,-2.61
2019-02-06T04:17:25.577Z,-2.66
2019-02-06T04:18:25.530Z,-2.64
2019-02-06T04:19:25.449Z,-2.64
2019-02-06T04:20:25.553Z,-2.65
2019-02-06T04:21:25.709Z,-2.64
2019-02-06T04:22:25.459Z,-2.69
2019-02-06T04:23:25.441Z,-2.6
2019-02-06T04:24:25.437Z,-2.63
2019-02-06T04:25:26.865Z,-2.63
2019-02-06T04:26:25.546Z,-2.67
2019-02-06T04:27:25.457Z,-2.6
2019-02-06T04:28:25.578Z,-2.61
2019-02-06T04:29:25.426Z,-2.62
2019-02-06T04:30:25.627Z,-2.66
2019-02-06T04:31:25.596Z,-2.57
2019-02-06T04:32:25.511Z,-2.59
2019-02-06T04:33:27.264Z,-2.55
2019-02-06T04:34:25.547Z,-2.53
2019-02-06T04:35:25.492Z,-2.59
2019-02-06T04:36:25.398Z,-2.64
2019-02-06T04:37:25.510Z,-2.69
2019-02-06T04:38:25.439Z,-2.63
2019-02-06T04:39:25.581Z,-2.6
2019-02-06T04:40:25.386Z,-2.63
2019-02-06T04:41:25.472Z,-2.6
2019-02-06T04:42:25.582Z,-2.62
2019-02-06T04:43:25.405Z,-2.67
2019-02-06T04:44:25.637Z,-2.62
2019-02-06T04:45:25.396Z,-2.63
2019-02-06T04:46:25.989Z,-2.68
2019-02-06T04:47:25.412Z,-2.72
2019-02-06T04:48:26.749Z,-2.69
2019-02-06T04:49:25.659Z,-2.72
2019-02-06T04:50:25.650Z,-2.65
2019-02-06T04:51:25.743Z,-2.71
2019-02-06T04:52:25.445Z,-2.7
2019-02-06T04:53:25.455Z,-2.73
2019-02-06T04:54:25.827Z,-2.71
2019-02-06T04:55:25.725Z,-2.72
2019-02-06T04:56:27.825Z,-2.76
2019-02-06T04:57:25.483Z,-2.74
2019-02-06T04:58:25.547Z,-2.73
2019-02-06T04:59:25.835Z,-2.78
2019-02-06T05:00:25.592Z,-2.79
2019-02-06T05:01:26.480Z,-2.8
2019-02-06T05:02:25.889Z,-2.79
2019-02-06T05:03:26.335Z,-2.77
2019-02-06T05:04:25.496Z,-2.81
2019-02-06T05:05:25.554Z,-2.84
2019-02-06T05:06:25.390Z,-2.85
2019-02-06T05:07:25.681Z,-2.81
2019-02-06T05:08:25.518Z,-2.78
2019-02-06T05:09:25.778Z,-2.63
2019-02-06T05:10:25.363Z,-2.67
2019-02-06T05:11:27.617Z,-2.7
2019-02-06T05:12:25.788Z,-2.7
2019-02-06T05:13:25.462Z,-2.77
2019-02-06T05:14:25.521Z,-2.74
2019-02-06T05:15:25.953Z,-2.8
2019-02-06T05:16:25.640Z,-2.75
2019-02-06T05:17:25.473Z,-2.75
2019-02-06T05:18:25.601Z,-2.77
2019-02-06T05:19:27.196Z,-2.73
2019-02-06T05:20:25.796Z,-2.78
2019-02-06T05:21:25.461Z,-2.79
2019-02-06T05:22:25.351Z,-2.72
2019-02-06T05:23:25.686Z,-2.72
2019-02-06T05:24:25.697Z,-2.82
2019-02-06T05:25:25.515Z,-2.8
2019-02-06T05:26:26.795Z,-2.79
2019-02-06T05:27:25.611Z,-2.83
2019-02-06T05:28:25.484Z,-2.81
2019-02-06T05:29:25.388Z,-2.88
2019-02-06T05:30:25.327Z,-2.86
2019-02-06T05:31:25.631Z,-2.9
2019-02-06T05:32:25.538Z,-2.92
2019-02-06T05:33:25.637Z,-2.94
2019-02-06T05:34:25.488Z,-2.89
2019-02-06T05:35:25.664Z,-2.85
2019-02-06T05:36:25.669Z,-2.86
2019-02-06T05:37:32.634Z,-2.89
2019-02-06T05:38:25.537Z,-2.89
2019-02-06T05:39:25.595Z,-2.89
2019-02-06T05:40:25.708Z,-2.84
2019-02-06T05:41:26.802Z,-2.8
2019-02-06T05:42:25.618Z,-2.83
2019-02-06T05:43:25.533Z,-2.86
2019-02-06T05:44:25.468Z,-2.83
2019-02-06T05:45:25.340Z,-2.84
2019-02-06T05:46:25.685Z,-2.88
2019-02-06T05:47:25.373Z,-2.9
2019-02-06T05:48:25.362Z,-2.94
2019-02-06T05:49:25.341Z,-2.91
2019-02-06T05:50:25.513Z,-2.94
2019-02-06T05:51:25.300Z,-2.91
2019-02-06T05:52:25.362Z,-2.94
2019-02-06T05:53:25.293Z,-2.99
2019-02-06T05:54:25.318Z,-2.93
2019-02-06T05:55:25.686Z,-2.96
2019-02-06T05:56:27.095Z,-2.94
2019-02-06T05:57:25.630Z,-2.87
2019-02-06T05:58:25.362Z,-2.93
2019-02-06T05:59:25.305Z,-2.92
2019-02-06T06:00:25.278Z,-2.95
2019-02-06T06:01:25.378Z,-2.97
2019-02-06T06:02:25.545Z,-3
2019-02-06T06:03:25.257Z,-3
2019-02-06T06:04:25.310Z,-2.99
2019-02-06T06:05:25.471Z,-2.95
2019-02-06T06:06:25.271Z,-2.96
2019-02-06T06:07:25.264Z,-2.94
2019-02-06T06:08:25.282Z,-2.99
2019-02-06T06:09:25.325Z,-2.96
2019-02-06T06:10:25.300Z,-2.99
2019-02-06T06:11:26.889Z,-2.95
2019-02-06T06:12:25.270Z,-2.97
2019-02-06T06:13:25.283Z,-2.99
2019-02-06T06:14:25.454Z,-2.92
2019-02-06T06:15:25.280Z,-2.96
2019-02-06T06:16:25.299Z,-2.86
2019-02-06T06:17:25.320Z,-2.78
2019-02-06T06:18:26.014Z,-2.86
2019-02-06T06:19:25.629Z,-2.93
2019-02-06T06:20:25.552Z,-2.92
2019-02-06T06:21:25.282Z,-2.99
2019-02-06T06:22:25.242Z,-2.94
2019-02-06T06:23:25.983Z,-2.97
2019-02-06T06:24:25.702Z,-2.95
2019-02-06T06:25:25.617Z,-2.96
2019-02-06T06:26:27.089Z,-3
2019-02-06T06:27:25.297Z,-3.02
2019-02-06T06:28:25.517Z,-2.99
2019-02-06T06:29:25.367Z,-2.98
2019-02-06T06:30:25.269Z,-3
2019-02-06T06:31:25.236Z,-2.95
2019-02-06T06:32:25.387Z,-2.97
2019-02-06T06:33:26.261Z,-2.97
2019-02-06T06:34:25.565Z,-3.01
2019-02-06T06:35:25.546Z,-2.93
2019-02-06T06:36:25.298Z,-3.01
2019-02-06T06:37:25.250Z,-3.03
2019-02-06T06:38:25.395Z,-3.02
2019-02-06T06:39:25.367Z,-3
2019-02-06T06:40:25.433Z,-2.98
2019-02-06T06:41:26.888Z,-2.95
2019-02-06T06:42:25.235Z,-2.96
2019-02-06T06:43:25.430Z,-2.97
2019-02-06T06:44:25.282Z,-2.95
2019-02-06T06:45:25.275Z,-2.95
2019-02-06T06:46:27.109Z,-2.85
2019-02-06T06:47:25.297Z,-2.87
2019-02-06T06:48:25.344Z,-2.85
2019-02-06T06:49:25.354Z,-2.84
2019-02-06T06:50:25.547Z,-2.81
2019-02-06T06:51:25.549Z,-2.9
2019-02-06T06:52:27.058Z,-2.89
2019-02-06T06:53:25.302Z,-2.83
2019-02-06T06:54:25.779Z,-2.85
2019-02-06T06:55:25.684Z,-2.88
2019-02-06T06:56:26.145Z,-2.94
2019-02-06T06:57:25.173Z,-2.82
2019-02-06T06:58:25.477Z,-2.88
2019-02-06T06:59:25.277Z,-2.95
2019-02-06T07:00:25.843Z,-2.89
2019-02-06T07:01:25.268Z,-2.9
2019-02-06T07:02:25.407Z,-2.94
2019-02-06T07:03:25.734Z,-2.88
2019-02-06T07:04:26.918Z,-2.86
2019-02-06T07:05:25.584Z,-2.81
2019-02-06T07:06:25.242Z,-2.83
2019-02-06T07:07:25.652Z,-2.88
2019-02-06T07:08:25.254Z,-2.89
2019-02-06T07:09:25.225Z,-2.88
2019-02-06T07:10:25.378Z,-2.88
2019-02-06T07:11:25.537Z,-2.83
2019-02-06T07:12:27.187Z,-2.78
2019-02-06T07:13:25.587Z,-2.82
2019-02-06T07:14:25.229Z,-2.87
2019-02-06T07:15:25.620Z,-2.85
2019-02-06T07:16:25.514Z,-2.89
2019-02-06T07:17:27.039Z,-2.9
2019-02-06T07:18:25.419Z,-2.89
2019-02-06T07:19:26.207Z,-2.91
2019-02-06T07:20:25.142Z,-2.86
2019-02-06T07:21:25.195Z,-2.86
2019-02-06T07:22:25.336Z,-2.92
2019-02-06T07:23:26.673Z,-2.94
2019-02-06T07:24:25.178Z,-2.94
2019-02-06T07:25:25.173Z,-2.97
2019-02-06T07:26:25.469Z,-2.97
2019-02-06T07:27:26.265Z,-2.96
2019-02-06T07:28:25.153Z,-2.96
2019-02-06T07:29:25.153Z,-2.98
2019-02-06T07:30:25.151Z,-2.95
2019-02-06T07:31:25.137Z,-2.97
2019-02-06T07:32:25.275Z,-2.96
2019-02-06T07:33:27.003Z,-2.91
2019-02-06T07:34:25.495Z,-2.92
2019-02-06T07:35:25.131Z,-2.86
2019-02-06T07:36:25.952Z,-2.92
2019-02-06T07:37:25.181Z,-2.87
2019-02-06T07:38:25.468Z,-2.87
2019-02-06T07:39:25.308Z,-2.93
2019-02-06T07:40:25.454Z,-2.82
2019-02-06T07:41:25.368Z,-2.87
2019-02-06T07:42:26.663Z,-2.89
2019-02-06T07:43:25.276Z,-2.84
2019-02-06T07:44:25.116Z,-2.81
2019-02-06T07:45:25.113Z,-2.8
2019-02-06T07:46:25.251Z,-2.81
2019-02-06T07:47:25.122Z,-2.83
2019-02-06T07:48:25.160Z,-2.83
2019-02-06T07:49:25.114Z,-2.82
2019-02-06T07:50:26.310Z,-2.76
2019-02-06T07:51:25.529Z,-2.84
2019-02-06T07:52:25.134Z,-2.75
2019-02-06T07:53:25.110Z,-2.75
2019-02-06T07:54:25.156Z,-2.73
2019-02-06T07:55:25.282Z,-2.69
2019-02-06T07:56:25.150Z,-2.76
2019-02-06T07:57:26.126Z,-2.73
2019-02-06T07:58:25.122Z,-2.72
2019-02-06T07:59:25.139Z,-2.7
2019-02-06T08:00:25.144Z,-2.73
2019-02-06T08:01:25.113Z,-2.69
2019-02-06T08:02:25.397Z,-2.74
2019-02-06T08:03:25.093Z,-2.73
2019-02-06T08:04:25.722Z,-2.7
2019-02-06T08:05:26.713Z,-2.72
2019-02-06T08:06:26.747Z,-2.68
2019-02-06T08:07:25.123Z,-2.67
2019-02-06T08:08:36.605Z,-2.74
2019-02-06T08:09:25.068Z,-2.69
2019-02-06T08:10:25.195Z,-2.69
2019-02-06T08:11:25.077Z,-2.68
2019-02-06T08:12:25.666Z,-2.7
2019-02-06T08:13:25.428Z,-2.66
2019-02-06T08:14:26.938Z,-2.64
2019-02-06T08:15:25.110Z,-2.68
2019-02-06T08:16:25.482Z,-2.68
2019-02-06T08:17:25.599Z,-2.64
2019-02-06T08:18:25.613Z,-2.62
2019-02-06T08:19:25.326Z,-2.61
2019-02-06T08:20:28.317Z,-2.6
2019-02-06T08:21:25.183Z,-2.6
2019-02-06T08:22:25.417Z,-2.61
2019-02-06T08:23:25.139Z,-2.59
2019-02-06T08:24:25.537Z,-2.57
2019-02-06T08:25:25.319Z,-2.56
2019-02-06T08:26:25.359Z,-2.54
2019-02-06T08:27:26.785Z,-2.51
2019-02-06T08:28:26.974Z,-2.52
2019-02-06T08:29:25.692Z,-2.48
2019-02-06T08:30:25.481Z,-2.48
2019-02-06T08:31:25.137Z,-2.48
2019-02-06T08:32:25.252Z,-2.45
2019-02-06T08:33:25.393Z,-2.44
2019-02-06T08:34:26.905Z,-2.5
2019-02-06T08:35:25.376Z,-2.51
2019-02-06T08:36:25.285Z,-2.46
2019-02-06T08:37:25.053Z,-2.44
2019-02-06T08:38:25.118Z,-2.42
2019-02-06T08:39:26.255Z,-2.39
2019-02-06T08:40:25.513Z,-2.38
2019-02-06T08:41:25.038Z,-2.44
2019-02-06T08:42:25.556Z,-2.39
2019-02-06T08:43:26.042Z,-2.39
2019-02-06T08:44:25.373Z,-2.39
2019-02-06T08:45:25.071Z,-2.38
2019-02-06T08:46:25.302Z,-2.37
2019-02-06T08:47:25.826Z,-2.34
2019-02-06T08:48:25.023Z,-2.35
2019-02-06T08:49:25.143Z,-2.4
2019-02-06T08:50:25.082Z,-2.44
2019-02-06T08:51:26.508Z,-2.45
2019-02-06T08:52:25.029Z,-2.45
2019-02-06T08:53:25.019Z,-2.44
2019-02-06T08:54:25.276Z,-2.44
2019-02-06T08:55:25.339Z,-2.4
2019-02-06T08:56:25.344Z,-2.4
2019-02-06T08:57:25.361Z,-2.42
2019-02-06T08:58:26.241Z,-2.4
2019-02-06T08:59:25.364Z,-2.39
2019-02-06T09:00:25.485Z,-2.38
2019-02-06T09:01:25.238Z,-2.24
2019-02-06T09:02:25.489Z,-2.33
2019-02-06T09:03:25.185Z,-2.33
2019-02-06T09:04:25.069Z,-2.33
2019-02-06T09:05:25.280Z,-2.29
2019-02-06T09:06:26.703Z,-2.34
2019-02-06T09:07:25.151Z,-2.32
2019-02-06T09:08:25.041Z,-2.33
2019-02-06T09:09:25.545Z,-2.36
2019-02-06T09:10:25.034Z,-2.4
2019-02-06T09:11:25.262Z,-2.32
2019-02-06T09:12:25.000Z,-2.33
2019-02-06T09:13:25.122Z,-2.36
2019-02-06T09:14:25.131Z,-2.41
2019-02-06T09:15:27.868Z,-2.45
2019-02-06T09:16:25.267Z,-2.46
2019-02-06T09:17:25.014Z,-2.47
2019-02-06T09:18:25.288Z,-2.45
2019-02-06T09:19:25.435Z,-2.38
2019-02-06T09:20:25.129Z,-2.45
2019-02-06T09:21:26.290Z,-2.38
2019-02-06T09:22:26.850Z,-2.45
2019-02-06T09:23:24.970Z,-2.45
2019-02-06T09:24:25.241Z,-2.42
2019-02-06T09:25:25.370Z,-2.38
2019-02-06T09:26:25.244Z,-2.37
2019-02-06T09:27:25.075Z,-2.35
2019-02-06T09:28:25.063Z,-2.38
2019-02-06T09:29:26.444Z,-2.37
2019-02-06T09:30:25.048Z,-2.33
2019-02-06T09:31:25.024Z,-2.33
2019-02-06T09:32:25.131Z,-2.32
2019-02-06T09:33:25.030Z,-2.32
2019-02-06T09:34:25.069Z,-2.32
2019-02-06T09:35:25.086Z,-2.32
2019-02-06T09:36:25.670Z,-2.21
2019-02-06T09:37:25.022Z,-2.22
2019-02-06T09:38:25.111Z,-2.2
2019-02-06T09:39:24.996Z,-2.23
2019-02-06T09:40:25.044Z,-2.16
2019-02-06T09:41:25.016Z,-2.14
2019-02-06T09:42:25.099Z,-2.18
2019-02-06T09:43:27.761Z,-2.2
2019-02-06T09:44:26.645Z,-2.14
2019-02-06T09:45:25.063Z,-2.1
2019-02-06T09:46:25.016Z,-2.16
2019-02-06T09:47:25.003Z,-2.13
2019-02-06T09:48:24.930Z,-2.1
2019-02-06T09:49:25.242Z,-2.09
2019-02-06T09:50:25.089Z,-2.12
2019-02-06T09:51:25.413Z,-2.08
2019-02-06T09:52:30.178Z,-2.08
2019-02-06T09:53:24.968Z,-2.07
2019-02-06T09:54:25.765Z,-2.03
2019-02-06T09:55:25.056Z,-2.06
2019-02-06T09:56:24.997Z,-2.07
2019-02-06T09:57:25.203Z,-2.04
2019-02-06T09:58:25.307Z,-2.03
2019-02-06T09:59:26.846Z,-1.99
2019-02-06T10:00:25.358Z,-2.04
2019-02-06T10:01:25.819Z,-2.08
2019-02-06T10:02:26.087Z,-1.99
2019-02-06T10:03:25.166Z,-2.01
2019-02-06T10:04:25.169Z,-2.05
2019-02-06T10:05:25.041Z,-1.96
2019-02-06T10:06:24.937Z,-1.93
2019-02-06T10:07:24.929Z,-1.93
2019-02-06T10:08:25.194Z,-2.04
2019-02-06T10:09:26.032Z,-1.97
2019-02-06T10:10:25.013Z,-1.96
2019-02-06T10:11:25.112Z,-1.89
2019-02-06T10:12:24.912Z,-1.89
2019-02-06T10:13:25.095Z,-1.87
2019-02-06T10:14:26.432Z,-1.88
2019-02-06T10:15:25.028Z,-1.77
2019-02-06T10:16:24.904Z,-1.75
2019-02-06T10:17:24.909Z,-1.79
2019-02-06T10:18:26.775Z,-1.8
2019-02-06T10:19:25.220Z,-1.76
2019-02-06T10:20:25.016Z,-1.78
2019-02-06T10:21:25.071Z,-1.94
2019-02-06T10:22:26.486Z,-1.78
2019-02-06T10:23:24.895Z,-1.77
2019-02-06T10:24:25.177Z,-1.78
2019-02-06T10:25:25.206Z,-1.8
2019-02-06T10:26:25.152Z,-1.86
2019-02-06T10:27:25.129Z,-1.77
2019-02-06T10:28:26.160Z,-1.72
2019-02-06T10:29:25.064Z,-1.67
2019-02-06T10:30:25.168Z,-1.66
2019-02-06T10:31:25.170Z,-1.75
2019-02-06T10:32:25.299Z,-1.71
2019-02-06T10:33:25.121Z,-1.66
2019-02-06T10:34:25.045Z,-1.58
2019-02-06T10:35:25.168Z,-1.59
2019-02-06T10:36:25.020Z,-1.5
2019-02-06T10:37:28.944Z,-1.53
2019-02-06T10:38:25.194Z,-1.68
2019-02-06T10:39:35.130Z,-1.5
2019-02-06T10:40:24.875Z,-1.45
2019-02-06T10:41:25.066Z,-1.43
2019-02-06T10:42:24.980Z,-1.45
2019-02-06T10:43:36.150Z,-1.45
2019-02-06T10:44:25.015Z,-1.39
2019-02-06T10:45:26.431Z,-1.38
2019-02-06T10:46:24.844Z,-1.53
2019-02-06T10:47:24.888Z,-1.45
2019-02-06T10:48:25.263Z,-1.41
2019-02-06T10:49:25.389Z,-1.39
2019-02-06T10:50:24.837Z,-1.46
2019-02-06T10:51:25.005Z,-1.42
2019-02-06T10:52:25.768Z,-1.43
2019-02-06T10:53:24.888Z,-1.36
2019-02-06T10:54:24.945Z,-1.29
2019-02-06T10:55:24.834Z,-1.28
2019-02-06T10:56:25.332Z,-1.26
2019-02-06T10:57:24.916Z,-1.2
2019-02-06T10:58:25.142Z,-1.21
2019-02-06T10:59:24.854Z,-1.25
2019-02-06T11:00:26.427Z,-1.28
2019-02-06T11:01:25.352Z,-1.31
2019-02-06T11:02:25.149Z,-1.29
2019-02-06T11:03:24.977Z,-1.2
2019-02-06T11:04:24.810Z,-1.19
2019-02-06T11:05:24.822Z,-1.2
2019-02-06T11:06:25.271Z,-1.14
2019-02-06T11:07:25.301Z,-1.11
2019-02-06T11:08:25.204Z,-1.09
2019-02-06T11:09:25.456Z,-1.14
2019-02-06T11:10:24.807Z,-1.18
2019-02-06T11:11:25.013Z,-1.25
2019-02-06T11:12:24.922Z,-1.22
2019-02-06T11:13:25.113Z,-1.08
2019-02-06T11:14:24.834Z,-0.97
2019-02-06T11:15:26.425Z,-1.02
2019-02-06T11:16:24.822Z,-1.04
2019-02-06T11:17:24.802Z,-1
2019-02-06T11:18:24.810Z,-0.98
2019-02-06T11:19:24.799Z,-0.97
2019-02-06T11:20:24.766Z,-1.07
2019-02-06T11:21:25.383Z,-0.94
2019-02-06T11:22:24.882Z,-0.89
2019-02-06T11:23:26.374Z,-0.94
2019-02-06T11:24:27.110Z,-0.95
2019-02-06T11:25:24.825Z,-0.91
2019-02-06T11:26:24.810Z,-0.92
2019-02-06T11:27:24.830Z,-0.84
2019-02-06T11:28:24.782Z,-0.84
2019-02-06T11:29:25.230Z,-0.86
2019-02-06T11:30:25.251Z,-0.76
2019-02-06T11:31:24.796Z,-0.85
2019-02-06T11:32:25.226Z,-0.72
2019-02-06T11:33:25.151Z,-0.83
2019-02-06T11:34:24.813Z,-0.72
2019-02-06T11:35:25.012Z,-0.66
2019-02-06T11:36:25.268Z,-0.58
2019-02-06T11:37:24.799Z,-0.66
2019-02-06T11:38:28.283Z,-0.71
2019-02-06T11:39:25.113Z,-0.63
2019-02-06T11:40:24.825Z,-0.66
2019-02-06T11:41:24.974Z,-0.52
2019-02-06T11:42:25.060Z,-0.66
2019-02-06T11:43:24.757Z,-0.61
2019-02-06T11:44:24.826Z,-0.69
2019-02-06T11:45:25.148Z,-0.64
2019-02-06T11:46:26.322Z,-0.65
2019-02-06T11:47:24.867Z,-0.56
2019-02-06T11:48:24.973Z,-0.55
2019-02-06T11:49:24.821Z,-0.48
2019-02-06T11:50:24.963Z,-0.48
2019-02-06T11:51:26.607Z,-0.55
2019-02-06T11:52:25.167Z,-0.48
2019-02-06T11:53:26.818Z,-0.41
2019-02-06T11:54:24.962Z,-0.39
2019-02-06T11:55:24.889Z,-0.23
2019-02-06T11:56:24.731Z,-0.3
2019-02-06T11:57:25.260Z,-0.26
2019-02-06T11:58:25.023Z,-0.23
2019-02-06T11:59:25.000Z,-0.21
2019-02-06T12:00:24.887Z,-0.14
2019-02-06T12:01:26.428Z,-0.15
2019-02-06T12:02:24.836Z,-0.09
2019-02-06T12:03:24.808Z,-0.06
2019-02-06T12:04:24.783Z,-0.18
2019-02-06T12:05:25.157Z,-0.1
2019-02-06T12:06:24.814Z,-0.24
2019-02-06T12:07:24.738Z,-0.18
2019-02-06T12:08:24.801Z,-0.04
2019-02-06T12:09:26.679Z,-0.08
2019-02-06T12:10:25.294Z,-0.01
2019-02-06T12:11:25.201Z,0.08
2019-02-06T12:12:24.796Z,-0.13
2019-02-06T12:13:25.006Z,-0.15
2019-02-06T12:14:25.098Z,-0.23
2019-02-06T12:15:25.026Z,-0.27
2019-02-06T12:16:26.330Z,-0.18
2019-02-06T12:17:24.804Z,-0.14
2019-02-06T12:18:24.722Z,-0.3
2019-02-06T12:19:25.746Z,-0.2
2019-02-06T12:20:25.261Z,-0.09
2019-02-06T12:21:24.709Z,0.05
2019-02-06T12:22:25.170Z,-0.07
2019-02-06T12:23:32.739Z,0.1
2019-02-06T12:24:26.368Z,-0.16
2019-02-06T12:25:25.187Z,0.05
2019-02-06T12:26:24.820Z,0.15
2019-02-06T12:27:25.095Z,-0.05
2019-02-06T12:28:25.198Z,-0.14
2019-02-06T12:29:25.119Z,-0.14
2019-02-06T12:30:24.896Z,-0.05
2019-02-06T12:31:25.699Z,-0.1
2019-02-06T12:32:25.250Z,-0.1
2019-02-06T12:33:24.844Z,0.11
2019-02-06T12:34:25.156Z,-0.03
2019-02-06T12:35:24.706Z,0.01
2019-02-06T12:36:24.704Z,0.01
2019-02-06T12:37:24.713Z,0
2019-02-06T12:38:24.764Z,0.11
2019-02-06T12:39:24.778Z,0.23
2019-02-06T12:40:25.088Z,0.21
2019-02-06T12:41:24.836Z,0.18
2019-02-06T12:42:24.744Z,0.17
2019-02-06T12:43:24.742Z,0.03
2019-02-06T12:44:24.989Z,0.13
2019-02-06T12:45:26.097Z,0.24
2019-02-06T12:46:25.020Z,0.21
2019-02-06T12:47:27.131Z,0.23
2019-02-06T12:48:24.857Z,0.29
2019-02-06T12:49:24.677Z,0.34
2019-02-06T12:50:24.746Z,0.31
2019-02-06T12:51:24.710Z,0.06
2019-02-06T12:52:25.172Z,-0.07
2019-02-06T12:53:30.375Z,0.02
2019-02-06T12:54:25.198Z,0.29
2019-02-06T12:55:24.866Z,0.32
2019-02-06T12:56:24.873Z,0.35